Time;durP1;ratioP1;P1;durP2;ratioP2;P2;SDS_P1;SDS_P2;PMS_P1;PMS_P2;Temp;Humidity;BMP_temperature;BMP_pressure;BME280_temperature;BME280_humidity;BME280_pressure;Samples;Min_cycle;Max_cycle;Signal;HPM_P1;HPM_P2
2022/03/11 00:01:08;;;;;;;10.18;6.18;;;;;;;;;;6311241;22;20081;-64
2022/03/11 00:03:34;;;;;;;12.40;7.22;;;;;;;;;;6338935;22;20003;-64
2022/03/11 00:06:00;;;;;;;13.73;7.80;;;;;;;;;;6338662;22;20001;-65
2022/03/11 00:08:27;;;;;;;17.88;9.27;;;;;;;;;;6338935;22;20086;-65
2022/03/11 00:10:53;;;;;;;17.17;9.52;;;;;;;;;;6338898;22;20074;-65
2022/03/11 00:13:19;;;;;;;20.67;11.07;;;;;;;;;;6338847;22;20007;-67
2022/03/11 00:15:45;;;;;;;18.92;9.55;;;;;;;;;;6311181;22;20003;-67
2022/03/11 00:18:13;;;;;;;20.95;10.43;;;;;;;;;;6338852;22;20079;-66
2022/03/11 00:20:39;;;;;;;21.60;10.15;;;;;;;;;;6338820;22;20335;-65
2022/03/11 00:23:05;;;;;;;20.63;9.93;;;;;;;;;;6310886;22;20373;-65
2022/03/11 00:25:32;;;;;;;18.70;9.43;;;;;;;;;;6338873;22;19991;-65
2022/03/11 00:28:01;;;;;;;18.30;9.15;;;;;;;;;;6338828;22;20494;-65
2022/03/11 00:30:30;;;;;;;26.92;10.35;;;;;;;;;;6338809;22;20044;-65
2022/03/11 00:32:56;;;;;;;17.15;8.73;;;;;;;;;;6338793;22;20014;-65
2022/03/11 00:35:23;;;;;;;20.33;8.98;;;;;;;;;;6310996;22;20003;-66
2022/03/11 00:37:49;;;;;;;18.90;9.32;;;;;;;;;;6310683;22;20014;-66
2022/03/11 00:40:16;;;;;;;24.83;12.25;;;;;;;;;;6338412;22;20378;-66
2022/03/11 00:42:42;;;;;;;37.20;17.10;;;;;;;;;;6338616;22;20003;-65
2022/03/11 00:45:08;;;;;;;41.95;17.95;;;;;;;;;;6340431;22;19994;-65
2022/03/11 00:47:35;;;;;;;35.75;15.80;;;;;;;;;;6313133;22;20027;-65
2022/03/11 00:50:01;;;;;;;36.08;15.70;;;;;;;;;;6313050;22;20003;-65
2022/03/11 00:52:28;;;;;;;22.52;12.25;;;;;;;;;;6340621;22;20007;-66
2022/03/11 00:54:54;;;;;;;25.67;12.30;;;;;;;;;;6340618;22;20066;-65
2022/03/11 00:57:20;;;;;;;24.08;11.35;;;;;;;;;;6312918;22;19995;-65
2022/03/11 00:59:46;;;;;;;24.90;13.40;;;;;;;;;;6313002;22;20032;-65
2022/03/11 01:02:13;;;;;;;25.20;13.03;;;;;;;;;;6340440;22;20002;-67
2022/03/11 01:04:39;;;;;;;34.10;16.63;;;;;;;;;;6340527;22;20083;-65
2022/03/11 01:07:06;;;;;;;30.93;15.27;;;;;;;;;;6340241;22;20030;-65
2022/03/11 01:09:32;;;;;;;28.53;14.33;;;;;;;;;;6340386;22;19998;-66
2022/03/11 01:11:58;;;;;;;25.23;14.02;;;;;;;;;;6312715;22;19999;-66
2022/03/11 01:14:24;;;;;;;36.60;14.30;;;;;;;;;;6312830;22;20006;-65
2022/03/11 01:16:50;;;;;;;26.70;13.88;;;;;;;;;;6312834;22;19999;-65
2022/03/11 01:19:17;;;;;;;29.20;13.50;;;;;;;;;;6340304;22;20066;-67
2022/03/11 01:21:43;;;;;;;29.42;13.20;;;;;;;;;;6340177;22;19998;-66
2022/03/11 01:24:10;;;;;;;28.92;14.35;;;;;;;;;;6340351;22;20002;-66
2022/03/11 01:26:36;;;;;;;27.23;12.20;;;;;;;;;;6312517;22;20364;-66
2022/03/11 01:29:03;;;;;;;24.93;13.77;;;;;;;;;;6340248;22;19998;-66
2022/03/11 01:31:29;;;;;;;20.47;10.97;;;;;;;;;;6340216;22;20029;-66
2022/03/11 01:33:55;;;;;;;23.40;12.00;;;;;;;;;;6312198;22;19994;-66
2022/03/11 01:36:21;;;;;;;28.70;12.47;;;;;;;;;;6340184;22;19999;-66
2022/03/11 01:38:47;;;;;;;22.07;12.40;;;;;;;;;;6340136;22;20069;-66
2022/03/11 01:41:14;;;;;;;24.13;11.33;;;;;;;;;;6312498;22;20423;-66
2022/03/11 01:43:54;;;;;;;23.70;11.37;;;;;;;;;;6339946;22;20016;-66
2022/03/11 01:46:20;;;;;;;22.13;11.27;;;;;;;;;;6340102;22;19999;-66
2022/03/11 01:48:46;;;;;;;26.07;13.63;;;;;;;;;;6312412;22;20026;-66
2022/03/11 01:51:13;;;;;;;28.70;14.23;;;;;;;;;;6340027;22;20017;-67
2022/03/11 01:53:39;;;;;;;28.37;13.60;;;;;;;;;;6312322;22;20003;-66
2022/03/11 01:56:06;;;;;;;34.53;15.63;;;;;;;;;;6339785;22;19998;-66
2022/03/11 01:58:34;;;;;;;40.03;17.27;;;;;;;;;;6339936;22;20026;-66
2022/03/11 02:01:01;;;;;;;36.37;17.30;;;;;;;;;;6339523;22;20373;-67
2022/03/11 02:03:27;;;;;;;52.13;23.23;;;;;;;;;;6340261;22;20781;-67
2022/03/11 02:05:53;;;;;;;31.50;16.00;;;;;;;;;;6312245;22;20003;-67
2022/03/11 02:08:20;;;;;;;24.97;13.53;;;;;;;;;;6306392;22;20098;-67
2022/03/11 02:10:46;;;;;;;25.47;11.83;;;;;;;;;;6308273;22;20007;-67
2022/03/11 02:13:12;;;;;;;28.13;12.70;;;;;;;;;;6308724;22;20026;-66
2022/03/11 02:15:39;;;;;;;37.27;16.83;;;;;;;;;;6308633;22;20005;-66
2022/03/11 02:18:05;;;;;;;44.40;21.17;;;;;;;;;;6308224;22;20074;-66
2022/03/11 02:20:31;;;;;;;60.27;24.97;;;;;;;;;;6308565;22;20426;-66
2022/03/11 02:22:58;;;;;;;60.03;23.13;;;;;;;;;;6306779;22;20380;-66
2022/03/11 02:25:24;;;;;;;44.30;18.27;;;;;;;;;;6308557;22;20003;-68
2022/03/11 02:27:51;;;;;;;22.23;11.27;;;;;;;;;;6308471;22;20000;-66
2022/03/11 02:30:21;;;;;;;21.03;11.27;;;;;;;;;;6306941;22;19999;-66
2022/03/11 02:32:48;;;;;;;18.20;9.67;;;;;;;;;;6306800;22;20008;-66
2022/03/11 02:35:15;;;;;;;19.50;9.37;;;;;;;;;;6308465;22;19995;-66
2022/03/11 02:37:41;;;;;;;16.73;10.10;;;;;;;;;;6308428;22;20003;-65
2022/03/11 02:40:08;;;;;;;20.67;9.30;;;;;;;;;;6308375;22;20068;-66
2022/03/11 02:42:34;;;;;;;26.13;10.03;;;;;;;;;;6308182;22;20010;-66
2022/03/11 02:45:04;;;;;;;16.17;9.03;;;;;;;;;;6308391;22;20427;-66
2022/03/11 02:47:31;;;;;;;22.67;12.83;;;;;;;;;;6308284;22;20070;-66
2022/03/11 02:49:57;;;;;;;30.40;16.63;;;;;;;;;;6308271;22;20003;-66
2022/03/11 02:52:25;;;;;;;29.50;14.87;;;;;;;;;;6306664;22;20048;-66
2022/03/11 02:54:52;;;;;;;38.10;15.43;;;;;;;;;;6308285;22;19999;-66
2022/03/11 02:57:19;;;;;;;18.97;10.60;;;;;;;;;;6306541;22;20424;-66
2022/03/11 02:59:45;;;;;;;19.77;9.77;;;;;;;;;;6308213;22;20312;-69
2022/03/11 03:02:12;;;;;;;18.80;10.07;;;;;;;;;;6308068;22;20011;-69
2022/03/11 03:04:38;;;;;;;22.60;11.87;;;;;;;;;;6308082;22;20079;-69
2022/03/11 03:07:04;;;;;;;23.37;11.80;;;;;;;;;;6305655;22;20068;-69
2022/03/11 03:09:31;;;;;;;26.07;12.97;;;;;;;;;;6308097;22;20419;-69
2022/03/11 03:11:57;;;;;;;25.90;13.43;;;;;;;;;;6306457;22;20011;-69
2022/03/11 03:14:23;;;;;;;30.67;11.47;;;;;;;;;;6306328;22;19995;-69
2022/03/11 03:16:49;;;;;;;18.00;9.63;;;;;;;;;;6307967;22;20003;-69
2022/03/11 03:19:16;;;;;;;17.17;8.73;;;;;;;;;;6307590;22;20079;-69
2022/03/11 03:21:42;;;;;;;23.77;9.30;;;;;;;;;;6307477;22;20424;-68
2022/03/11 03:24:08;;;;;;;23.47;9.73;;;;;;;;;;6307924;22;20078;-68
2022/03/11 03:26:34;;;;;;;19.60;9.27;;;;;;;;;;6307604;22;20323;-68
2022/03/11 03:29:01;;;;;;;16.87;9.23;;;;;;;;;;6307918;22;20012;-68
2022/03/11 03:31:27;;;;;;;18.23;9.03;;;;;;;;;;6306231;22;20033;-68
2022/03/11 03:33:53;;;;;;;17.57;9.43;;;;;;;;;;6307863;22;19995;-68
2022/03/11 03:36:19;;;;;;;21.10;9.93;;;;;;;;;;6307836;22;20006;-67
2022/03/11 03:38:45;;;;;;;28.20;11.07;;;;;;;;;;6307793;22;20144;-67
2022/03/11 03:41:11;;;;;;;18.60;8.80;;;;;;;;;;6307798;22;20027;-68
2022/03/11 03:43:38;;;;;;;17.77;9.43;;;;;;;;;;6307699;22;20105;-67
2022/03/11 03:46:07;;;;;;;17.00;9.13;;;;;;;;;;6306195;22;20080;-68
2022/03/11 03:48:34;;;;;;;18.20;9.00;;;;;;;;;;6306051;22;20030;-66
2022/03/11 03:51:00;;;;;;;19.53;9.87;;;;;;;;;;6306069;22;19995;-65
2022/03/11 03:53:26;;;;;;;18.53;9.43;;;;;;;;;;6306006;22;20056;-65
2022/03/11 03:55:52;;;;;;;20.53;9.50;;;;;;;;;;6307702;22;20070;-66
2022/03/11 03:58:18;;;;;;;20.37;9.20;;;;;;;;;;6305962;22;20082;-66
2022/03/11 04:00:44;;;;;;;18.77;9.47;;;;;;;;;;6307598;22;20084;-66
2022/03/11 04:03:11;;;;;;;15.97;7.87;;;;;;;;;;6305888;22;20103;-66
2022/03/11 04:05:37;;;;;;;19.40;8.70;;;;;;;;;;6307623;22;19995;-65
2022/03/11 04:08:04;;;;;;;19.37;9.37;;;;;;;;;;6330336;22;20011;-66
2022/03/11 04:10:30;;;;;;;23.47;10.63;;;;;;;;;;6338848;22;20074;-69
2022/03/11 04:12:57;;;;;;;25.83;12.77;;;;;;;;;;6338914;22;20409;-68
2022/03/11 04:15:23;;;;;;;19.33;10.37;;;;;;;;;;6338854;22;20016;-69
2022/03/11 04:17:49;;;;;;;19.70;9.53;;;;;;;;;;6338758;22;20026;-69
2022/03/11 04:20:17;;;;;;;20.00;9.53;;;;;;;;;;6338895;22;20307;-69
2022/03/11 04:22:44;;;;;;;21.07;8.37;;;;;;;;;;6310548;22;20011;-69
2022/03/11 04:25:11;;;;;;;16.33;9.73;;;;;;;;;;6338410;22;19999;-68
2022/03/11 04:27:38;;;;;;;21.00;8.73;;;;;;;;;;6338906;22;20327;-68
2022/03/11 04:30:04;;;;;;;18.40;9.37;;;;;;;;;;6311046;22;19995;-68
2022/03/11 04:32:31;;;;;;;19.20;10.40;;;;;;;;;;6311029;22;20094;-68
2022/03/11 04:34:57;;;;;;;22.37;11.17;;;;;;;;;;6338721;22;20003;-69
2022/03/11 04:37:23;;;;;;;19.43;10.07;;;;;;;;;;6311018;22;20102;-68
2022/03/11 04:39:49;;;;;;;23.20;12.87;;;;;;;;;;6310859;22;20007;-70
2022/03/11 04:42:16;;;;;;;22.63;12.60;;;;;;;;;;6338592;22;20094;-70
2022/03/11 04:44:42;;;;;;;23.70;12.57;;;;;;;;;;6310993;22;20034;-69
2022/03/11 04:47:08;;;;;;;25.53;12.30;;;;;;;;;;6338668;22;20051;-68
2022/03/11 04:49:34;;;;;;;29.73;13.03;;;;;;;;;;6338665;22;20077;-68
2022/03/11 04:52:00;;;;;;;20.87;10.43;;;;;;;;;;6310901;22;19999;-69
2022/03/11 04:54:27;;;;;;;24.07;11.60;;;;;;;;;;6310919;22;20003;-66
2022/03/11 04:56:53;;;;;;;20.70;11.43;;;;;;;;;;6338674;22;20047;-66
2022/03/11 04:59:19;;;;;;;25.57;11.93;;;;;;;;;;6338551;22;20074;-65
2022/03/11 05:01:45;;;;;;;27.03;11.33;;;;;;;;;;6338468;22;20074;-65
2022/03/11 05:04:12;;;;;;;23.83;11.87;;;;;;;;;;6338600;22;19994;-65
2022/03/11 05:06:38;;;;;;;22.07;10.10;;;;;;;;;;6338337;22;20007;-65
2022/03/11 05:09:04;;;;;;;22.10;10.70;;;;;;;;;;6338496;22;20000;-65
2022/03/11 05:11:31;;;;;;;27.43;10.60;;;;;;;;;;6338481;22;19999;-67
2022/03/11 05:13:57;;;;;;;21.70;10.00;;;;;;;;;;6338526;22;20078;-68
2022/03/11 05:16:23;;;;;;;20.40;10.80;;;;;;;;;;6310872;22;20296;-66
2022/03/11 05:18:53;;;;;;;20.13;9.73;;;;;;;;;;6310855;22;20006;-66
2022/03/11 05:21:20;;;;;;;20.17;10.57;;;;;;;;;;6310728;22;20029;-66
2022/03/11 05:23:46;;;;;;;19.87;11.30;;;;;;;;;;6338384;22;20003;-67
2022/03/11 05:26:24;;;;;;;21.37;11.00;;;;;;;;;;6338490;22;19995;-67
2022/03/11 05:28:52;;;;;;;20.20;10.87;;;;;;;;;;6338001;22;20380;-67
2022/03/11 05:31:18;;;;;;;32.97;13.07;;;;;;;;;;6340055;22;20113;-67
2022/03/11 05:33:44;;;;;;;23.17;11.40;;;;;;;;;;6312570;22;20363;-67
2022/03/11 05:36:10;;;;;;;25.93;11.47;;;;;;;;;;6340017;22;20022;-67
2022/03/11 05:38:36;;;;;;;24.77;11.10;;;;;;;;;;6340018;22;20075;-64
2022/03/11 05:41:03;;;;;;;21.77;11.73;;;;;;;;;;6340014;22;19999;-66
2022/03/11 05:43:29;;;;;;;25.93;13.90;;;;;;;;;;6339994;22;20011;-68
2022/03/11 05:45:55;;;;;;;31.10;13.63;;;;;;;;;;6339966;22;19999;-67
2022/03/11 05:48:21;;;;;;;24.97;12.97;;;;;;;;;;6312294;22;20083;-68
2022/03/11 05:50:47;;;;;;;26.20;13.43;;;;;;;;;;6312325;22;20002;-67
2022/03/11 05:53:13;;;;;;;27.10;13.27;;;;;;;;;;6339913;22;20007;-67
2022/03/11 05:55:40;;;;;;;30.93;14.30;;;;;;;;;;6339931;22;20002;-67
2022/03/11 05:58:06;;;;;;;26.87;13.50;;;;;;;;;;6339942;22;20288;-67
2022/03/11 06:00:32;;;;;;;33.73;14.57;;;;;;;;;;6339860;22;20077;-67
2022/03/11 06:02:59;;;;;;;31.63;14.67;;;;;;;;;;6339668;22;20102;-66
2022/03/11 06:05:25;;;;;;;34.10;16.07;;;;;;;;;;6339713;22;20040;-66
2022/03/11 06:07:52;;;;;;;36.83;14.87;;;;;;;;;;6339042;22;20015;-66
2022/03/11 06:10:18;;;;;;;29.93;13.17;;;;;;;;;;6339579;22;19990;-67
2022/03/11 06:12:44;;;;;;;26.57;12.67;;;;;;;;;;6312054;22;20031;-66
2022/03/11 06:15:11;;;;;;;26.53;12.37;;;;;;;;;;6312016;22;20003;-65
2022/03/11 06:17:37;;;;;;;29.53;12.70;;;;;;;;;;6339755;22;20070;-66
2022/03/11 06:20:05;;;;;;;20.17;11.93;;;;;;;;;;6339539;22;20001;-66
2022/03/11 06:22:31;;;;;;;21.73;11.70;;;;;;;;;;6311731;22;20103;-66
2022/03/11 06:24:59;;;;;;;19.43;10.70;;;;;;;;;;6339499;22;20014;-66
2022/03/11 06:27:25;;;;;;;23.13;11.33;;;;;;;;;;6311950;22;20055;-66
2022/03/11 06:29:52;;;;;;;31.50;12.90;;;;;;;;;;6339555;22;19998;-66
2022/03/11 06:32:18;;;;;;;24.20;11.33;;;;;;;;;;6339548;22;19995;-66
2022/03/11 06:34:45;;;;;;;29.67;13.80;;;;;;;;;;6339580;22;20318;-66
2022/03/11 06:37:11;;;;;;;23.57;11.70;;;;;;;;;;6339422;22;19995;-67
2022/03/11 06:39:37;;;;;;;19.10;10.03;;;;;;;;;;6311672;22;20034;-67
2022/03/11 06:42:04;;;;;;;21.07;10.97;;;;;;;;;;6339324;22;20003;-67
2022/03/11 06:44:30;;;;;;;23.67;11.17;;;;;;;;;;6339371;22;20031;-67
2022/03/11 06:46:56;;;;;;;52.00;21.70;;;;;;;;;;6339295;22;19999;-66
2022/03/11 06:49:22;;;;;;;19.33;10.53;;;;;;;;;;6339430;22;20034;-66
2022/03/11 06:51:48;;;;;;;30.57;12.00;;;;;;;;;;6339186;22;19995;-67
2022/03/11 06:54:15;;;;;;;19.10;10.90;;;;;;;;;;6311439;22;20422;-67
2022/03/11 06:56:41;;;;;;;22.13;10.37;;;;;;;;;;6339374;22;19990;-67
2022/03/11 06:59:07;;;;;;;19.33;11.07;;;;;;;;;;6311622;22;20006;-67
2022/03/11 07:01:34;;;;;;;23.27;12.07;;;;;;;;;;6338923;22;20003;-67
2022/03/11 07:04:01;;;;;;;23.63;11.70;;;;;;;;;;6311506;22;20135;-68
2022/03/11 07:06:27;;;;;;;20.53;11.50;;;;;;;;;;6311234;22;20085;-69
2022/03/11 07:08:54;;;;;;;21.13;10.20;;;;;;;;;;6338850;22;20394;-68
2022/03/11 07:11:20;;;;;;;26.33;11.20;;;;;;;;;;6339342;22;20007;-68
2022/03/11 07:13:46;;;;;;;20.37;10.33;;;;;;;;;;6339241;22;20003;-68
2022/03/11 07:16:13;;;;;;;18.33;10.50;;;;;;;;;;6311297;22;20292;-68
2022/03/11 07:18:39;;;;;;;15.87;9.90;;;;;;;;;;6339289;22;20749;-68
2022/03/11 07:21:05;;;;;;;22.77;10.60;;;;;;;;;;6311374;22;20009;-69
2022/03/11 07:23:31;;;;;;;39.23;11.53;;;;;;;;;;6338989;22;20055;-67
2022/03/11 07:25:58;;;;;;;19.70;10.37;;;;;;;;;;6311322;22;19999;-68
2022/03/11 07:28:27;;;;;;;28.10;12.37;;;;;;;;;;6339174;22;20108;-68
2022/03/11 07:30:53;;;;;;;31.50;16.67;;;;;;;;;;6338987;22;19997;-68
2022/03/11 07:33:19;;;;;;;18.20;10.73;;;;;;;;;;6338965;22;20009;-67
2022/03/11 07:35:45;;;;;;;20.90;11.30;;;;;;;;;;6338991;22;20078;-67
2022/03/11 07:38:12;;;;;;;38.00;12.17;;;;;;;;;;6339090;22;20415;-68
2022/03/11 07:40:38;;;;;;;26.77;11.67;;;;;;;;;;6311136;22;20003;-68
2022/03/11 07:43:06;;;;;;;32.50;16.73;;;;;;;;;;6338813;22;20007;-68
2022/03/11 07:45:35;;;;;;;29.65;15.35;;;;;;;;;;6311224;22;20052;-68
2022/03/11 07:48:01;;;;;;;27.17;12.73;;;;;;;;;;6338685;22;20003;-67
2022/03/11 07:50:27;;;;;;;20.87;11.33;;;;;;;;;;6311167;22;20034;-68
2022/03/11 07:52:54;;;;;;;23.37;11.77;;;;;;;;;;6310725;22;19999;-67
2022/03/11 07:55:22;;;;;;;19.93;11.73;;;;;;;;;;6338696;22;20443;-67
2022/03/11 07:57:48;;;;;;;35.03;12.75;;;;;;;;;;6338738;22;19991;-65
2022/03/11 08:00:14;;;;;;;17.27;10.47;;;;;;;;;;6310485;22;19998;-65
2022/03/11 08:02:40;;;;;;;27.63;12.40;;;;;;;;;;6310784;22;20126;-68
2022/03/11 08:05:14;;;;;;;22.60;11.60;;;;;;;;;;6338479;22;20016;-65
2022/03/11 08:07:40;;;;;;;21.33;11.35;;;;;;;;;;6337958;22;20014;-66
2022/03/11 08:10:06;;;;;;;19.05;11.77;;;;;;;;;;6338010;22;20060;-67
2022/03/11 08:12:32;;;;;;;19.00;10.93;;;;;;;;;;6338158;22;19999;-69
2022/03/11 08:15:01;;;;;;;19.42;11.02;;;;;;;;;;6338609;22;19999;-67
2022/03/11 08:17:33;;;;;;;21.67;10.45;;;;;;;;;;6336354;22;20005;-74
2022/03/11 08:19:59;;;;;;;18.98;10.77;;;;;;;;;;6310351;22;20461;-77
2022/03/11 08:22:26;;;;;;;26.58;11.68;;;;;;;;;;6338299;22;20060;-68
2022/03/11 08:24:52;;;;;;;16.65;10.65;;;;;;;;;;6310754;22;20029;-66
2022/03/11 08:27:18;;;;;;;20.75;12.15;;;;;;;;;;6338335;22;20005;-68
2022/03/11 08:29:44;;;;;;;18.58;10.98;;;;;;;;;;6310674;22;20059;-67
2022/03/11 08:32:11;;;;;;;24.08;12.27;;;;;;;;;;6309986;22;20094;-66
2022/03/11 08:34:37;;;;;;;29.48;13.95;;;;;;;;;;6310477;22;20003;-67
2022/03/11 08:37:06;;;;;;;23.70;12.35;;;;;;;;;;6338252;22;20018;-69
2022/03/11 08:39:32;;;;;;;18.48;10.13;;;;;;;;;;6338448;22;20033;-67
2022/03/11 08:41:58;;;;;;;34.33;19.20;;;;;;;;;;6338191;22;20070;-68
2022/03/11 08:44:24;;;;;;;15.68;9.90;;;;;;;;;;6338284;22;20029;-65
2022/03/11 08:46:50;;;;;;;20.05;10.57;;;;;;;;;;6337905;22;20026;-70
2022/03/11 08:49:16;;;;;;;20.70;11.68;;;;;;;;;;6310322;22;20009;-69
2022/03/11 08:51:43;;;;;;;32.90;14.40;;;;;;;;;;6338355;22;19999;-67
2022/03/11 08:54:09;;;;;;;19.77;11.45;;;;;;;;;;6338379;22;20006;-66
2022/03/11 08:56:36;;;;;;;30.00;15.43;;;;;;;;;;6338426;22;20078;-65
2022/03/11 08:59:02;;;;;;;24.95;12.27;;;;;;;;;;6338428;22;20281;-66
2022/03/11 09:01:28;;;;;;;24.02;11.25;;;;;;;;;;6337831;22;20052;-65
2022/03/11 09:03:54;;;;;;;25.73;12.93;;;;;;;;;;6337542;22;19999;-65
2022/03/11 09:06:21;;;;;;;32.60;16.70;;;;;;;;;;6339625;22;19998;-66
2022/03/11 09:08:47;;;;;;;20.13;11.45;;;;;;;;;;6338561;22;20450;-65
2022/03/11 09:11:13;;;;;;;20.23;11.60;;;;;;;;;;6339922;22;19991;-65
2022/03/11 09:13:39;;;;;;;23.10;12.02;;;;;;;;;;6340077;22;20055;-65
2022/03/11 09:16:06;;;;;;;24.50;11.45;;;;;;;;;;6340106;22;19999;-66
2022/03/11 09:18:32;;;;;;;29.40;11.63;;;;;;;;;;6339386;22;20002;-67
2022/03/11 09:20:58;;;;;;;27.80;11.30;;;;;;;;;;6339698;22;20066;-66
2022/03/11 09:23:24;;;;;;;19.15;10.98;;;;;;;;;;6339773;22;20010;-66
2022/03/11 09:25:50;;;;;;;17.50;10.48;;;;;;;;;;6339830;22;20051;-65
2022/03/11 09:28:17;;;;;;;16.35;10.15;;;;;;;;;;6339026;22;20129;-65
2022/03/11 09:30:43;;;;;;;21.85;10.48;;;;;;;;;;6339527;22;19991;-65
2022/03/11 09:33:09;;;;;;;28.95;14.82;;;;;;;;;;6340005;22;20006;-64
2022/03/11 09:35:35;;;;;;;27.25;14.10;;;;;;;;;;6339948;22;19999;-64
2022/03/11 09:38:02;;;;;;;18.88;11.88;;;;;;;;;;6339759;22;20015;-65
2022/03/11 09:40:28;;;;;;;22.13;12.07;;;;;;;;;;6339783;22;19999;-66
2022/03/11 09:42:54;;;;;;;17.88;10.50;;;;;;;;;;6312110;22;20093;-66
2022/03/11 09:45:23;;;;;;;24.30;11.48;;;;;;;;;;6312045;22;20005;-65
2022/03/11 09:47:49;;;;;;;28.23;10.68;;;;;;;;;;6339775;22;19999;-65
2022/03/11 09:50:15;;;;;;;18.90;9.65;;;;;;;;;;6339604;22;20074;-66
2022/03/11 09:52:42;;;;;;;19.17;10.38;;;;;;;;;;6311920;22;20042;-66
2022/03/11 09:55:08;;;;;;;17.38;9.95;;;;;;;;;;6339116;22;19994;-65
2022/03/11 09:57:35;;;;;;;29.40;15.80;;;;;;;;;;6339071;22;19998;-67
2022/03/11 10:00:01;;;;;;;52.25;25.17;;;;;;;;;;6312027;22;20026;-65
2022/03/11 10:02:27;;;;;;;20.77;11.40;;;;;;;;;;6311894;22;20003;-68
2022/03/11 10:04:57;;;;;;;18.88;10.73;;;;;;;;;;6339371;22;20003;-69
2022/03/11 10:07:28;;;;;;;23.70;10.60;;;;;;;;;;6339764;22;20018;-68
2022/03/11 10:09:55;;;;;;;17.92;9.65;;;;;;;;;;6306278;22;20347;-67
2022/03/11 10:12:22;;;;;;;16.17;9.57;;;;;;;;;;6306740;22;20458;-67
2022/03/11 10:14:56;;;;;;;13.98;8.82;;;;;;;;;;6306870;22;20424;-68
2022/03/11 10:17:22;;;;;;;17.80;10.60;;;;;;;;;;6308217;22;20026;-67
2022/03/11 10:20:05;;;;;;;21.08;10.15;;;;;;;;;;6306841;22;19995;-68
2022/03/11 10:22:34;;;;;;;15.20;9.48;;;;;;;;;;6306484;22;20014;-64
2022/03/11 10:25:25;;;;;;;19.27;11.55;;;;;;;;;;6308204;22;19999;-64
2022/03/11 10:28:08;;;;;;;11.55;8.25;;;;;;;;;;6295466;22;19995;-63
2022/03/11 10:30:35;;;;;;;15.68;8.65;;;;;;;;;;6306822;22;20415;-64
2022/03/11 10:33:03;;;;;;;61.35;30.45;;;;;;;;;;6307919;22;20003;-65
2022/03/11 10:35:37;;;;;;;15.85;10.10;;;;;;;;;;6308286;22;20026;-64
2022/03/11 10:38:10;;;;;;;13.35;8.88;;;;;;;;;;6306737;22;20332;-64
2022/03/11 10:40:40;;;;;;;18.60;10.00;;;;;;;;;;6307647;22;19999;-64
2022/03/11 10:43:09;;;;;;;14.77;9.77;;;;;;;;;;6306603;22;20003;-63
2022/03/11 10:45:56;;;;;;;16.20;9.38;;;;;;;;;;6307896;22;20347;-64
2022/03/11 10:48:41;;;;;;;14.77;9.43;;;;;;;;;;6308271;22;20312;-65
2022/03/11 10:51:13;;;;;;;15.55;8.77;;;;;;;;;;6306568;22;20015;-64
2022/03/11 10:53:40;;;;;;;16.08;9.55;;;;;;;;;;6308042;22;19999;-64
2022/03/11 10:56:07;;;;;;;14.73;9.20;;;10.80;94.90;;;;;;6308164;22;20002;-64
2022/03/11 10:58:36;;;;;;;14.07;8.32;;;11.50;65.80;;;;;;6307686;22;19999;-64
2022/03/11 11:01:02;;;;;;;12.73;8.80;;;;;;;;;;6307777;22;20328;-63
2022/03/11 11:03:29;;;;;;;13.18;8.68;;;12.10;53.50;;;;;;6306293;22;20014;-64
2022/03/11 11:05:55;;;;;;;12.75;8.77;;;13.30;51.90;;;;;;6308152;22;19995;-64
2022/03/11 11:08:22;;;;;;;12.85;9.10;;;12.50;50.50;;;;;;6310389;22;20005;-64
2022/03/11 11:10:49;;;;;;;12.63;8.82;;;12.60;50.10;;;;;;6311707;22;20041;-64
2022/03/11 11:13:15;;;;;;;13.85;9.10;;;13.60;50.20;;;;;;6311625;22;20017;-63
2022/03/11 11:15:41;;;;;;;12.50;8.07;;;13.40;47.90;;;;;;6311507;22;20002;-64
2022/03/11 11:18:12;;;;;;;15.75;10.35;;;14.00;47.90;;;;;;6339211;22;19995;-64
2022/03/11 11:20:41;;;;;;;14.25;9.10;;;;;;;;;;6339188;22;19998;-69
2022/03/11 11:23:09;;;;;;;16.90;9.20;;;;;;;;;;6336480;22;20010;-67
2022/03/11 11:25:37;;;;;;;17.45;9.63;;;;;;;;;;6338772;22;20395;-67
2022/03/11 11:28:19;;;;;;;47.55;33.20;;;14.50;47.70;;;;;;6338512;22;19998;-66
2022/03/11 11:30:46;;;;;;;18.15;12.55;;;;;;;;;;6338963;22;20337;-69
2022/03/11 11:33:13;;;;;;;17.52;13.32;;;15.90;45.40;;;;;;6338866;22;19999;-68
2022/03/11 11:35:41;;;;;;;12.65;9.52;;;;;;;;;;6338955;22;19998;-67
2022/03/11 11:38:08;;;;;;;12.48;8.15;;;;;;;;;;6338890;22;19995;-69
2022/03/11 11:40:39;;;;;;;13.23;7.72;;;16.20;44.10;;;;;;6338644;22;20001;-67
2022/03/11 11:43:13;;;;;;;15.07;11.80;;;18.90;40.20;;;;;;6310458;22;20332;-66
2022/03/11 11:45:52;;;;;;;17.10;11.13;;;20.00;39.30;;;;;;6310096;22;20017;-68
2022/03/11 11:48:42;;;;;;;13.07;8.35;;;;;;;;;;6338175;22;19991;-66
2022/03/11 11:51:13;;;;;;;12.38;8.18;;;16.60;42.20;;;;;;6292893;22;20081;-66
2022/03/11 11:53:42;;;;;;;10.00;8.05;;;;;;;;;;6338776;22;20067;-65
2022/03/11 11:56:37;;;;;;;11.68;8.05;;;;;;;;;;6338935;22;19994;-64
2022/03/11 11:59:09;;;;;;;11.80;7.78;;;10.70;52.30;;;;;;6209755;23;20000;-65
2022/03/11 12:01:55;;;;;;;;;;;13.30;47.30;;;;;;6213007;23;20001;-64
2022/03/11 12:04:47;;;;;;;30.85;17.30;;;11.80;48.00;;;;;;6211676;23;19972;-63
2022/03/11 12:07:14;;;;;;;;;;;10.90;62.70;;;;;;6210170;23;20005;-64
2022/03/11 12:09:47;;;;;;;18.25;9.25;;;;;;;;;;6212316;23;20236;-64
2022/03/11 12:12:18;;;;;;;24.13;11.40;;;11.50;86.70;;;;;;6212380;23;20001;-64
2022/03/11 12:15:00;;;;;;;13.50;7.85;;;13.80;47.20;;;;;;6212248;23;20005;-64
2022/03/11 12:17:38;;;;;;;12.00;8.68;;;;;;;;;;6212312;23;20000;-65
2022/03/11 12:20:28;;;;;;;14.63;8.70;;;10.70;90.20;;;;;;6212023;23;20437;-65
2022/03/11 12:23:11;;;;;;;18.88;9.93;;;11.10;51.60;;;;;;6210710;23;20048;-65
2022/03/11 12:25:49;;;;;;;12.82;8.82;;;9.90;69.20;;;;;;6211171;23;20039;-64
2022/03/11 12:28:28;;;;;;;14.80;8.52;;;11.50;50.70;;;;;;6211578;23;20012;-64
2022/03/11 12:30:56;;;;;;;15.85;8.45;;;;;;;;;;6211560;23;20303;-64
2022/03/11 12:33:31;;;;;;;15.50;8.80;;;;;;;;;;6211784;23;20000;-64
2022/03/11 12:35:58;;;;;;;13.55;9.13;;;11.00;48.70;;;;;;6282328;22;19999;-64
2022/03/11 12:38:27;;;;;;;12.65;8.13;;;9.50;48.10;;;;;;6338596;22;20002;-65
2022/03/11 12:41:00;;;;;;;15.25;10.27;;;9.70;49.00;;;;;;6340434;22;19995;-64
2022/03/11 12:43:25;;;;;;;15.13;8.10;;;10.50;48.90;;;;;;6312342;22;20491;-65
2022/03/11 12:45:54;;;;;;;17.92;9.13;;;12.60;46.70;;;;;;6312656;22;20027;-65
2022/03/11 12:48:22;;;;;;;12.38;7.90;;;;;;;;;;6340227;22;19995;-65
2022/03/11 12:50:49;;;;;;;16.20;8.23;;;;;;;;;;6340461;22;20500;-65
2022/03/11 12:53:16;;;;;;;15.50;10.00;;;15.10;44.70;;;;;;6340478;22;20120;-65
2022/03/11 12:55:47;;;;;;;15.27;8.82;;;11.80;45.60;;;;;;6312424;22;19999;-65
2022/03/11 12:58:33;;;;;;;31.77;9.05;;;;;;;;;;6312834;22;20426;-64
2022/03/11 13:01:01;;;;;;;14.52;7.82;;;;;;;;;;6340099;22;20048;-64
2022/03/11 13:03:29;;;;;;;16.90;8.18;;;;;;;;;;6340369;22;20002;-64
2022/03/11 13:05:55;;;;;;;18.73;9.45;;;;;;;;;;6312608;22;20074;-64
2022/03/11 13:08:21;;;;;;;16.88;9.02;;;10.30;52.10;;;;;;6340052;22;19994;-64
2022/03/11 13:10:52;;;;;;;16.50;8.40;;;11.40;47.70;;;;;;6312703;22;20013;-65
2022/03/11 13:13:23;;;;;;;16.73;9.77;;;12.00;44.70;;;;;;6312115;22;20002;-64
2022/03/11 13:15:53;;;;;;;22.25;10.90;;;;;;;;;;6340324;22;19995;-65
2022/03/11 13:18:23;;;;;;;10.40;7.60;;;;;;;;;;6340104;22;20002;-65
2022/03/11 13:21:07;;;;;;;11.97;8.10;;;11.20;45.20;;;;;;6340146;22;20442;-66
2022/03/11 13:23:37;;;;;;;15.88;9.63;;;12.60;42.70;;;;;;6312600;22;20011;-65
2022/03/11 13:26:04;;;;;;;14.77;9.98;;;9.80;48.70;;;;;;6340283;22;20458;-65
2022/03/11 13:28:45;;;;;;;14.80;9.85;;;;;;;;;;6340078;22;19995;-65
2022/03/11 13:31:13;;;;;;;14.13;8.85;;;;;;;;;;6312650;22;20074;-63
2022/03/11 13:33:39;;;;;;;11.65;7.70;;;;;;;;;;6312411;22;20006;-63
2022/03/11 13:36:11;;;;;;;12.10;7.90;;;;;;;;;;6339659;22;19999;-63
2022/03/11 13:38:46;;;;;;;12.23;7.53;;;;;;;;;;6340108;22;20002;-63
2022/03/11 13:41:24;;;;;;;13.95;8.48;;;;;;;;;;6340060;22;20530;-64
2022/03/11 13:44:04;;;;;;;11.10;7.70;;;10.80;80.80;;;;;;6339962;22;20014;-64
2022/03/11 13:46:32;;;;;;;13.88;8.70;;;;;;;;;;6339964;22;19999;-64
2022/03/11 13:48:59;;;;;;;15.38;8.55;;;;;;;;;;6312393;22;19991;-64
2022/03/11 13:51:41;;;;;;;15.73;7.40;;;;;;;;;;6339626;22;20412;-64
2022/03/11 13:54:07;;;;;;;20.70;6.97;;;;;;;;;;6339940;22;19999;-64
2022/03/11 13:56:41;;;;;;;14.82;9.50;;;10.90;47.30;;;;;;6339527;22;20051;-64
2022/03/11 13:59:09;;;;;;;11.48;7.32;;;11.30;46.90;;;;;;6339832;22;19995;-65
2022/03/11 14:01:39;;;;;;;13.68;7.22;;;;;;;;;;6339917;22;19995;-64
2022/03/11 14:04:22;;;;;;;8.18;6.72;;;;;;;;;;6312022;22;20042;-64
2022/03/11 14:06:49;;;;;;;9.70;6.88;;;12.70;44.80;;;;;;6339937;22;19994;-64
2022/03/11 14:09:15;;;;;;;12.73;7.18;;;;;;;;;;6339099;22;20064;-64
2022/03/11 14:11:41;;;;;;;14.82;9.15;;;10.20;47.30;;;;;;6339743;22;20002;-64